sensor_id;sensor_type;location;lat;lon;timestamp;pressure;altitude;pressure_sealevel;temperature;humidity
5755;BME280;2902;42.130;24.732;2023-02-03T00:02:05;99773.06;;;5.40;74.05
5755;BME280;2902;42.130;24.732;2023-02-03T00:04:31;99764.66;;;5.37;74.00
5755;BME280;2902;42.130;24.732;2023-02-03T00:06:59;99764.16;;;5.33;73.91
5755;BME280;2902;42.130;24.732;2023-02-03T00:09:26;99751.84;;;5.42;73.09
5755;BME280;2902;42.130;24.732;2023-02-03T00:11:53;99749.09;;;5.51;73.02
5755;BME280;2902;42.130;24.732;2023-02-03T00:14:20;99760.47;;;5.52;72.45
5755;BME280;2902;42.130;24.732;2023-02-03T00:16:46;99757.69;;;5.53;72.23
5755;BME280;2902;42.130;24.732;2023-02-03T00:19:13;99754.84;;;5.55;72.29
5755;BME280;2902;42.130;24.732;2023-02-03T00:21:40;99780.91;;;5.58;72.19
5755;BME280;2902;42.130;24.732;2023-02-03T00:24:08;99764.25;;;5.57;71.69
5755;BME280;2902;42.130;24.732;2023-02-03T00:26:39;99757.03;;;5.59;71.87
5755;BME280;2902;42.130;24.732;2023-02-03T00:29:06;99765.97;;;5.66;71.24
5755;BME280;2902;42.130;24.732;2023-02-03T00:31:33;99766.97;;;5.73;70.41
5755;BME280;2902;42.130;24.732;2023-02-03T00:34:00;99764.50;;;5.72;70.17
5755;BME280;2902;42.130;24.732;2023-02-03T00:36:27;99768.56;;;5.58;70.55
5755;BME280;2902;42.130;24.732;2023-02-03T00:38:54;99768.59;;;5.66;70.49
5755;BME280;2902;42.130;24.732;2023-02-03T00:41:22;99771.88;;;5.68;70.25
5755;BME280;2902;42.130;24.732;2023-02-03T00:43:53;99779.44;;;5.63;70.13
5755;BME280;2902;42.130;24.732;2023-02-03T00:46:20;99773.50;;;5.61;70.12
5755;BME280;2902;42.130;24.732;2023-02-03T00:48:47;99775.16;;;5.62;69.78
5755;BME280;2902;42.130;24.732;2023-02-03T00:51:13;99776.47;;;5.58;69.33
5755;BME280;2902;42.130;24.732;2023-02-03T00:53:40;99779.47;;;5.71;68.96
5755;BME280;2902;42.130;24.732;2023-02-03T00:56:07;99791.97;;;5.69;68.88
5755;BME280;2902;42.130;24.732;2023-02-03T00:58:38;99783.44;;;5.75;68.78
5755;BME280;2902;42.130;24.732;2023-02-03T01:01:05;99789.13;;;5.89;68.13
5755;BME280;2902;42.130;24.732;2023-02-03T01:03:32;99809.50;;;5.78;67.62
5755;BME280;2902;42.130;24.732;2023-02-03T01:06:08;99807.25;;;5.84;67.76
5755;BME280;2902;42.130;24.732;2023-02-03T01:08:35;99801.88;;;6.01;67.59
5755;BME280;2902;42.130;24.732;2023-02-03T01:11:05;99813.91;;;6.04;67.69
5755;BME280;2902;42.130;24.732;2023-02-03T01:13:32;99809.84;;;6.17;67.54
5755;BME280;2902;42.130;24.732;2023-02-03T01:16:00;99809.19;;;6.23;67.82
5755;BME280;2902;42.130;24.732;2023-02-03T01:18:27;99803.59;;;6.26;67.49
5755;BME280;2902;42.130;24.732;2023-02-03T01:20:54;99804.78;;;6.40;66.96
5755;BME280;2902;42.130;24.732;2023-02-03T01:23:21;99789.63;;;6.42;66.96
5755;BME280;2902;42.130;24.732;2023-02-03T01:25:47;99797.22;;;6.45;66.80
5755;BME280;2902;42.130;24.732;2023-02-03T01:28:14;99808.59;;;6.53;66.39
5755;BME280;2902;42.130;24.732;2023-02-03T01:30:41;99812.56;;;6.57;65.89
5755;BME280;2902;42.130;24.732;2023-02-03T01:33:09;99815.03;;;6.59;65.85
5755;BME280;2902;42.130;24.732;2023-02-03T01:35:36;99817.19;;;6.63;65.79
5755;BME280;2902;42.130;24.732;2023-02-03T01:38:03;99831.34;;;6.62;64.42
5755;BME280;2902;42.130;24.732;2023-02-03T01:40:29;99817.97;;;6.48;64.79
5755;BME280;2902;42.130;24.732;2023-02-03T01:42:56;99826.72;;;6.40;64.92
5755;BME280;2902;42.130;24.732;2023-02-03T01:45:22;99817.63;;;6.35;65.41
5755;BME280;2902;42.130;24.732;2023-02-03T01:47:51;99818.59;;;6.26;66.22
5755;BME280;2902;42.130;24.732;2023-02-03T01:50:24;99816.25;;;6.15;66.54
5755;BME280;2902;42.130;24.732;2023-02-03T01:52:55;99821.47;;;6.07;67.06
5755;BME280;2902;42.130;24.732;2023-02-03T01:55:26;99822.94;;;5.93;68.19
5755;BME280;2902;42.130;24.732;2023-02-03T01:57:57;99822.78;;;5.95;68.71
5755;BME280;2902;42.130;24.732;2023-02-03T02:00:26;99830.47;;;5.88;68.91
5755;BME280;2902;42.130;24.732;2023-02-03T02:02:53;99829.56;;;5.71;70.04
5755;BME280;2902;42.130;24.732;2023-02-03T02:05:26;99829.19;;;5.66;70.48
5755;BME280;2902;42.130;24.732;2023-02-03T02:07:54;99844.53;;;5.71;70.71
5755;BME280;2902;42.130;24.732;2023-02-03T02:10:22;99841.97;;;5.53;71.45
5755;BME280;2902;42.130;24.732;2023-02-03T02:12:48;99841.66;;;5.56;71.83
5755;BME280;2902;42.130;24.732;2023-02-03T02:15:15;99837.00;;;5.50;72.29
5755;BME280;2902;42.130;24.732;2023-02-03T02:17:55;99840.59;;;5.41;73.02
5755;BME280;2902;42.130;24.732;2023-02-03T02:20:47;99835.91;;;5.35;73.65
5755;BME280;2902;42.130;24.732;2023-02-03T02:24:06;99834.94;;;5.36;73.75
5755;BME280;2902;42.130;24.732;2023-02-03T02:33:03;99832.25;;;5.28;75.13
5755;BME280;2902;42.130;24.732;2023-02-03T02:35:45;99835.84;;;5.27;76.08
5755;BME280;2902;42.130;24.732;2023-02-03T02:38:19;99851.38;;;5.30;75.76
5755;BME280;2902;42.130;24.732;2023-02-03T02:40:53;99850.84;;;5.27;76.10
5755;BME280;2902;42.130;24.732;2023-02-03T02:43:25;99851.97;;;5.24;76.19
5755;BME280;2902;42.130;24.732;2023-02-03T02:45:59;99860.25;;;5.29;76.49
5755;BME280;2902;42.130;24.732;2023-02-03T02:48:33;99857.97;;;5.34;76.06
5755;BME280;2902;42.130;24.732;2023-02-03T02:51:02;99860.56;;;5.26;76.21
5755;BME280;2902;42.130;24.732;2023-02-03T02:53:34;99859.63;;;5.35;76.22
5755;BME280;2902;42.130;24.732;2023-02-03T02:56:04;99856.94;;;5.27;76.24
5755;BME280;2902;42.130;24.732;2023-02-03T02:58:34;99862.50;;;5.24;75.98
5755;BME280;2902;42.130;24.732;2023-02-03T03:01:03;99854.53;;;5.16;76.44
5755;BME280;2902;42.130;24.732;2023-02-03T03:03:31;99868.59;;;5.25;75.83
5755;BME280;2902;42.130;24.732;2023-02-03T03:06:01;99871.28;;;5.33;75.83
5755;BME280;2902;42.130;24.732;2023-02-03T03:08:35;99866.13;;;5.23;75.57
5755;BME280;2902;42.130;24.732;2023-02-03T03:11:03;99869.72;;;5.22;75.85
5755;BME280;2902;42.130;24.732;2023-02-03T03:13:33;99870.56;;;5.23;75.61
5755;BME280;2902;42.130;24.732;2023-02-03T03:16:02;99872.44;;;5.30;75.48
5755;BME280;2902;42.130;24.732;2023-02-03T03:18:35;99860.84;;;5.23;75.86
5755;BME280;2902;42.130;24.732;2023-02-03T03:21:05;99871.94;;;5.09;76.76
5755;BME280;2902;42.130;24.732;2023-02-03T03:23:36;99861.03;;;5.04;77.09
5755;BME280;2902;42.130;24.732;2023-02-03T03:26:09;99875.78;;;5.15;76.76
5755;BME280;2902;42.130;24.732;2023-02-03T03:28:42;99889.09;;;5.13;76.92
5755;BME280;2902;42.130;24.732;2023-02-03T03:31:12;99886.31;;;4.97;77.47
5755;BME280;2902;42.130;24.732;2023-02-03T03:33:40;99892.63;;;5.04;77.17
5755;BME280;2902;42.130;24.732;2023-02-03T03:36:13;99874.72;;;4.90;77.03
5755;BME280;2902;42.130;24.732;2023-02-03T03:38:47;99890.28;;;5.01;76.73
5755;BME280;2902;42.130;24.732;2023-02-03T03:41:21;99881.97;;;4.88;77.04
5755;BME280;2902;42.130;24.732;2023-02-03T03:43:52;99881.63;;;4.91;76.97
5755;BME280;2902;42.130;24.732;2023-02-03T03:46:25;99884.97;;;4.93;76.57
5755;BME280;2902;42.130;24.732;2023-02-03T03:48:56;99886.00;;;5.00;75.63
5755;BME280;2902;42.130;24.732;2023-02-03T03:51:27;99885.75;;;4.94;75.69
5755;BME280;2902;42.130;24.732;2023-02-03T03:53:58;99884.81;;;4.77;76.05
5755;BME280;2902;42.130;24.732;2023-02-03T03:56:30;99890.06;;;4.77;76.32
5755;BME280;2902;42.130;24.732;2023-02-03T03:59:01;99890.91;;;4.78;75.43
5755;BME280;2902;42.130;24.732;2023-02-03T04:01:29;99893.75;;;4.84;75.67
5755;BME280;2902;42.130;24.732;2023-02-03T04:04:02;99900.66;;;4.85;75.16
5755;BME280;2902;42.130;24.732;2023-02-03T04:06:31;99912.19;;;4.84;75.21
5755;BME280;2902;42.130;24.732;2023-02-03T04:08:57;99911.56;;;4.90;75.34
5755;BME280;2902;42.130;24.732;2023-02-03T04:11:26;99919.22;;;4.84;74.73
5755;BME280;2902;42.130;24.732;2023-02-03T04:14:10;99931.56;;;4.83;74.86
5755;BME280;2902;42.130;24.732;2023-02-03T04:16:37;99934.59;;;4.88;75.12
5755;BME280;2902;42.130;24.732;2023-02-03T04:19:05;99941.13;;;4.84;74.70
5755;BME280;2902;42.130;24.732;2023-02-03T04:21:32;99939.63;;;4.82;75.57
5755;BME280;2902;42.130;24.732;2023-02-03T04:23:59;99946.75;;;4.89;74.92
5755;BME280;2902;42.130;24.732;2023-02-03T04:26:25;99953.84;;;5.06;74.80
5755;BME280;2902;42.130;24.732;2023-02-03T04:28:52;99949.16;;;5.18;74.36
5755;BME280;2902;42.130;24.732;2023-02-03T04:31:19;99945.34;;;5.12;74.51
5755;BME280;2902;42.130;24.732;2023-02-03T04:33:45;99947.38;;;5.18;74.44
5755;BME280;2902;42.130;24.732;2023-02-03T04:36:14;99947.09;;;5.21;74.43
5755;BME280;2902;42.130;24.732;2023-02-03T04:38:40;99948.72;;;5.22;74.77
5755;BME280;2902;42.130;24.732;2023-02-03T04:41:07;99936.56;;;5.21;74.73
5755;BME280;2902;42.130;24.732;2023-02-03T04:43:34;99924.81;;;4.98;75.12
5755;BME280;2902;42.130;24.732;2023-02-03T04:46:00;99915.69;;;4.93;75.78
5755;BME280;2902;42.130;24.732;2023-02-03T04:48:27;99920.16;;;4.92;75.79
5755;BME280;2902;42.130;24.732;2023-02-03T04:50:54;99919.53;;;4.98;75.84
5755;BME280;2902;42.130;24.732;2023-02-03T04:53:22;99917.13;;;4.87;76.11
5755;BME280;2902;42.130;24.732;2023-02-03T04:55:48;99917.13;;;4.87;75.86
5755;BME280;2902;42.130;24.732;2023-02-03T04:58:15;99928.06;;;4.92;75.90
5755;BME280;2902;42.130;24.732;2023-02-03T05:00:42;99931.41;;;4.85;76.04
5755;BME280;2902;42.130;24.732;2023-02-03T05:03:08;99931.13;;;4.88;76.02
5755;BME280;2902;42.130;24.732;2023-02-03T05:05:35;99933.22;;;4.84;75.89
5755;BME280;2902;42.130;24.732;2023-02-03T05:08:02;99938.19;;;4.87;75.74
5755;BME280;2902;42.130;24.732;2023-02-03T05:10:30;99931.88;;;4.80;76.27
5755;BME280;2902;42.130;24.732;2023-02-03T05:12:57;99936.53;;;4.86;75.30
5755;BME280;2902;42.130;24.732;2023-02-03T05:15:24;99933.00;;;4.78;75.05
5755;BME280;2902;42.130;24.732;2023-02-03T05:17:51;99936.81;;;4.83;75.14
5755;BME280;2902;42.130;24.732;2023-02-03T05:20:18;99941.31;;;4.73;74.68
5755;BME280;2902;42.130;24.732;2023-02-03T05:22:45;99935.59;;;4.60;75.47
5755;BME280;2902;42.130;24.732;2023-02-03T05:25:11;99944.00;;;4.64;75.16
5755;BME280;2902;42.130;24.732;2023-02-03T05:27:40;99946.06;;;4.70;75.13
5755;BME280;2902;42.130;24.732;2023-02-03T05:30:08;99953.50;;;4.74;74.76
5755;BME280;2902;42.130;24.732;2023-02-03T05:32:35;99952.50;;;4.58;74.73
5755;BME280;2902;42.130;24.732;2023-02-03T05:35:02;99958.56;;;4.58;75.33
5755;BME280;2902;42.130;24.732;2023-02-03T05:37:29;99985.28;;;4.63;75.01
5755;BME280;2902;42.130;24.732;2023-02-03T05:39:56;99973.50;;;4.67;74.96
5755;BME280;2902;42.130;24.732;2023-02-03T05:42:48;99971.72;;;4.58;75.29
5755;BME280;2902;42.130;24.732;2023-02-03T05:45:14;99978.34;;;4.62;74.79
5755;BME280;2902;42.130;24.732;2023-02-03T05:47:41;99982.38;;;4.57;74.92
5755;BME280;2902;42.130;24.732;2023-02-03T05:50:08;99974.84;;;4.44;75.68
5755;BME280;2902;42.130;24.732;2023-02-03T05:52:35;99973.38;;;4.32;76.01
5755;BME280;2902;42.130;24.732;2023-02-03T05:55:02;99971.28;;;4.36;76.03
5755;BME280;2902;42.130;24.732;2023-02-03T05:57:29;99977.78;;;4.41;75.33
5755;BME280;2902;42.130;24.732;2023-02-03T05:59:57;99975.97;;;4.42;75.09
5755;BME280;2902;42.130;24.732;2023-02-03T06:02:24;99981.38;;;4.40;75.57
5755;BME280;2902;42.130;24.732;2023-02-03T06:04:50;99987.75;;;4.38;75.93
5755;BME280;2902;42.130;24.732;2023-02-03T06:07:19;99992.19;;;4.37;74.88
5755;BME280;2902;42.130;24.732;2023-02-03T06:09:45;99995.09;;;4.34;75.01
5755;BME280;2902;42.130;24.732;2023-02-03T06:12:14;100005.53;;;4.53;74.22
5755;BME280;2902;42.130;24.732;2023-02-03T06:14:41;100007.72;;;4.67;73.28
5755;BME280;2902;42.130;24.732;2023-02-03T06:17:09;100017.25;;;4.68;72.64
5755;BME280;2902;42.130;24.732;2023-02-03T06:19:35;100027.78;;;4.68;72.26
5755;BME280;2902;42.130;24.732;2023-02-03T06:22:02;100037.56;;;4.76;72.21
5755;BME280;2902;42.130;24.732;2023-02-03T06:24:29;100041.22;;;4.92;71.97
5755;BME280;2902;42.130;24.732;2023-02-03T06:26:56;100039.25;;;4.94;71.36
5755;BME280;2902;42.130;24.732;2023-02-03T06:29:22;100044.91;;;4.99;70.75
5755;BME280;2902;42.130;24.732;2023-02-03T06:31:49;100045.22;;;4.96;71.13
5755;BME280;2902;42.130;24.732;2023-02-03T06:34:17;100057.13;;;5.00;70.53
5755;BME280;2902;42.130;24.732;2023-02-03T06:36:44;100060.09;;;5.15;69.67
5755;BME280;2902;42.130;24.732;2023-02-03T06:39:11;100063.69;;;5.31;68.78
5755;BME280;2902;42.130;24.732;2023-02-03T06:41:38;100069.22;;;5.55;68.58
5755;BME280;2902;42.130;24.732;2023-02-03T06:44:05;100072.41;;;5.94;67.46
5755;BME280;2902;42.130;24.732;2023-02-03T06:46:32;100078.31;;;6.14;65.98
5755;BME280;2902;42.130;24.732;2023-02-03T06:48:59;100091.88;;;6.19;65.67
5755;BME280;2902;42.130;24.732;2023-02-03T06:51:27;100085.69;;;6.28;65.54
5755;BME280;2902;42.130;24.732;2023-02-03T06:53:53;100091.97;;;6.35;65.19
5755;BME280;2902;42.130;24.732;2023-02-03T06:56:20;100090.94;;;6.02;66.58
5755;BME280;2902;42.130;24.732;2023-02-03T06:58:47;100097.06;;;6.11;65.47
5755;BME280;2902;42.130;24.732;2023-02-03T07:01:13;100104.38;;;6.17;66.08
5755;BME280;2902;42.130;24.732;2023-02-03T07:03:40;100101.06;;;6.15;65.73
5755;BME280;2902;42.130;24.732;2023-02-03T07:06:07;100098.50;;;6.23;65.48
5755;BME280;2902;42.130;24.732;2023-02-03T07:08:35;100104.03;;;6.12;65.01
5755;BME280;2902;42.130;24.732;2023-02-03T07:11:02;100100.03;;;6.08;66.28
5755;BME280;2902;42.130;24.732;2023-02-03T07:13:28;100099.13;;;5.99;65.88
5755;BME280;2902;42.130;24.732;2023-02-03T07:15:55;100097.06;;;6.11;66.13
5755;BME280;2902;42.130;24.732;2023-02-03T07:18:22;100094.47;;;6.36;66.35
5755;BME280;2902;42.130;24.732;2023-02-03T07:20:51;100096.63;;;6.58;65.06
5755;BME280;2902;42.130;24.732;2023-02-03T07:23:18;100108.59;;;6.78;63.36
5755;BME280;2902;42.130;24.732;2023-02-03T07:25:46;100091.97;;;6.86;63.39
5755;BME280;2902;42.130;24.732;2023-02-03T07:28:13;100097.00;;;7.05;63.11
5755;BME280;2902;42.130;24.732;2023-02-03T07:30:40;100097.78;;;7.31;62.00
5755;BME280;2902;42.130;24.732;2023-02-03T07:33:06;100111.72;;;7.65;61.27
5755;BME280;2902;42.130;24.732;2023-02-03T07:35:33;100118.81;;;7.64;60.43
5755;BME280;2902;42.130;24.732;2023-02-03T07:38:00;100128.94;;;7.85;60.71
5755;BME280;2902;42.130;24.732;2023-02-03T07:40:27;100115.41;;;8.12;59.17
5755;BME280;2902;42.130;24.732;2023-02-03T07:42:55;100114.06;;;8.16;58.73
5755;BME280;2902;42.130;24.732;2023-02-03T07:45:22;100125.00;;;8.05;59.16
5755;BME280;2902;42.130;24.732;2023-02-03T07:47:49;100131.59;;;7.85;59.67
5755;BME280;2902;42.130;24.732;2023-02-03T07:50:16;100129.78;;;8.01;60.73
5755;BME280;2902;42.130;24.732;2023-02-03T07:52:43;100138.28;;;8.45;59.00
5755;BME280;2902;42.130;24.732;2023-02-03T07:55:09;100141.41;;;8.56;57.43
5755;BME280;2902;42.130;24.732;2023-02-03T07:57:36;100147.28;;;8.98;56.80
5755;BME280;2902;42.130;24.732;2023-02-03T08:00:11;100144.34;;;9.32;56.56
5755;BME280;2902;42.130;24.732;2023-02-03T08:02:38;100143.72;;;9.22;55.61
5755;BME280;2902;42.130;24.732;2023-02-03T08:05:05;100152.44;;;9.69;54.74
5755;BME280;2902;42.130;24.732;2023-02-03T08:07:32;100157.53;;;9.78;53.65
5755;BME280;2902;42.130;24.732;2023-02-03T08:09:59;100155.41;;;9.74;53.96
5755;BME280;2902;42.130;24.732;2023-02-03T08:12:25;100149.50;;;9.94;52.13
5755;BME280;2902;42.130;24.732;2023-02-03T08:14:52;100151.22;;;9.79;51.88
5755;BME280;2902;42.130;24.732;2023-02-03T08:17:20;100143.06;;;9.89;52.01
5755;BME280;2902;42.130;24.732;2023-02-03T08:19:47;100140.47;;;10.03;51.04
5755;BME280;2902;42.130;24.732;2023-02-03T08:22:14;100148.03;;;9.84;51.54
5755;BME280;2902;42.130;24.732;2023-02-03T08:24:41;100136.31;;;9.78;52.30
5755;BME280;2902;42.130;24.732;2023-02-03T08:27:10;100138.03;;;9.94;51.13
5755;BME280;2902;42.130;24.732;2023-02-03T08:29:37;100137.84;;;9.73;50.43
5755;BME280;2902;42.130;24.732;2023-02-03T08:32:04;100143.38;;;10.16;50.11
5755;BME280;2902;42.130;24.732;2023-02-03T08:34:32;100136.06;;;10.18;50.45
5755;BME280;2902;42.130;24.732;2023-02-03T08:36:58;100136.72;;;10.57;49.46
5755;BME280;2902;42.130;24.732;2023-02-03T08:39:25;100142.69;;;10.74;47.69
5755;BME280;2902;42.130;24.732;2023-02-03T08:41:52;100134.59;;;10.53;48.23
5755;BME280;2902;42.130;24.732;2023-02-03T08:44:19;100145.03;;;10.54;48.32
5755;BME280;2902;42.130;24.732;2023-02-03T08:46:48;100148.78;;;10.97;47.29
5755;BME280;2902;42.130;24.732;2023-02-03T08:49:15;100156.66;;;10.90;46.99
5755;BME280;2902;42.130;24.732;2023-02-03T08:51:44;100148.94;;;10.81;46.42
5755;BME280;2902;42.130;24.732;2023-02-03T08:54:11;100156.03;;;11.03;46.33
5755;BME280;2902;42.130;24.732;2023-02-03T08:56:38;100150.41;;;11.27;45.17
5755;BME280;2902;42.130;24.732;2023-02-03T08:59:05;100150.13;;;11.51;44.03
5755;BME280;2902;42.130;24.732;2023-02-03T09:01:32;100141.88;;;11.46;43.51
5755;BME280;2902;42.130;24.732;2023-02-03T09:03:59;100136.72;;;11.59;42.65
5755;BME280;2902;42.130;24.732;2023-02-03T09:06:28;100131.28;;;11.82;43.00
5755;BME280;2902;42.130;24.732;2023-02-03T09:08:56;100135.38;;;11.63;42.84
5755;BME280;2902;42.130;24.732;2023-02-03T09:11:23;100136.75;;;11.30;42.22
5755;BME280;2902;42.130;24.732;2023-02-03T09:13:50;100143.00;;;11.37;42.39
5755;BME280;2902;42.130;24.732;2023-02-03T09:16:18;100139.56;;;11.72;41.85
5755;BME280;2902;42.130;24.732;2023-02-03T09:18:46;100146.19;;;11.97;40.52
5755;BME280;2902;42.130;24.732;2023-02-03T09:21:13;100143.03;;;12.08;39.67
5755;BME280;2902;42.130;24.732;2023-02-03T09:23:41;100144.81;;;12.22;40.27
5755;BME280;2902;42.130;24.732;2023-02-03T09:26:11;100143.53;;;12.39;40.12
5755;BME280;2902;42.130;24.732;2023-02-03T09:28:38;100129.16;;;12.61;39.72
5755;BME280;2902;42.130;24.732;2023-02-03T09:31:07;100126.47;;;12.34;41.28
5755;BME280;2902;42.130;24.732;2023-02-03T09:33:34;100141.88;;;12.87;39.54
5755;BME280;2902;42.130;24.732;2023-02-03T09:36:01;100133.00;;;12.80;38.52
5755;BME280;2902;42.130;24.732;2023-02-03T09:38:28;100125.31;;;12.70;38.51
5755;BME280;2902;42.130;24.732;2023-02-03T09:40:58;100119.44;;;12.26;39.55
5755;BME280;2902;42.130;24.732;2023-02-03T09:43:33;100116.56;;;12.28;40.00
5755;BME280;2902;42.130;24.732;2023-02-03T09:46:05;100110.13;;;12.16;39.14
5755;BME280;2902;42.130;24.732;2023-02-03T09:48:35;100110.63;;;12.05;38.44
5755;BME280;2902;42.130;24.732;2023-02-03T09:51:04;100106.31;;;11.83;38.79
5755;BME280;2902;42.130;24.732;2023-02-03T09:53:37;100100.22;;;11.53;38.21
5755;BME280;2902;42.130;24.732;2023-02-03T09:56:19;100100.78;;;11.63;38.82
5755;BME280;2902;42.130;24.732;2023-02-03T09:58:48;100105.97;;;11.71;38.62
5755;BME280;2902;42.130;24.732;2023-02-03T10:01:15;100118.31;;;11.29;38.38
5755;BME280;2902;42.130;24.732;2023-02-03T10:03:50;100130.44;;;11.17;38.77
5755;BME280;2902;42.130;24.732;2023-02-03T10:06:26;100116.94;;;11.33;39.30
5755;BME280;2902;42.130;24.732;2023-02-03T10:09:07;100124.53;;;11.50;38.86
5755;BME280;2902;42.130;24.732;2023-02-03T10:11:45;100128.53;;;11.75;38.16
5755;BME280;2902;42.130;24.732;2023-02-03T10:14:46;100074.25;;;11.05;38.55
5755;BME280;2902;42.130;24.732;2023-02-03T10:17:25;100117.03;;;11.89;38.36
5755;BME280;2902;42.130;24.732;2023-02-03T10:19:59;100130.38;;;11.75;38.16
5755;BME280;2902;42.130;24.732;2023-02-03T10:22:30;100130.88;;;11.49;37.63
5755;BME280;2902;42.130;24.732;2023-02-03T10:25:01;100126.84;;;11.89;37.36
5755;BME280;2902;42.130;24.732;2023-02-03T10:27:30;100121.09;;;12.27;35.94
5755;BME280;2902;42.130;24.732;2023-02-03T10:30:02;100108.78;;;12.26;36.50
5755;BME280;2902;42.130;24.732;2023-02-03T10:32:29;100106.00;;;12.34;36.48
5755;BME280;2902;42.130;24.732;2023-02-03T10:34:56;100105.78;;;12.57;36.34
5755;BME280;2902;42.130;24.732;2023-02-03T10:37:26;100092.22;;;12.58;36.53
5755;BME280;2902;42.130;24.732;2023-02-03T10:39:55;100086.72;;;12.32;35.96
5755;BME280;2902;42.130;24.732;2023-02-03T10:42:23;100090.47;;;12.17;36.46
5755;BME280;2902;42.130;24.732;2023-02-03T10:45:12;100082.81;;;11.86;36.83
5755;BME280;2902;42.130;24.732;2023-02-03T10:47:42;100089.59;;;11.89;37.02
5755;BME280;2902;42.130;24.732;2023-02-03T10:50:15;100094.97;;;12.16;35.87
5755;BME280;2902;42.130;24.732;2023-02-03T10:52:42;100083.00;;;12.06;36.88
5755;BME280;2902;42.130;24.732;2023-02-03T10:55:30;100084.59;;;12.28;36.58
5755;BME280;2902;42.130;24.732;2023-02-03T10:57:57;100095.22;;;12.21;35.98
5755;BME280;2902;42.130;24.732;2023-02-03T11:00:33;100081.16;;;12.06;36.15
5755;BME280;2902;42.130;24.732;2023-02-03T11:03:05;100082.94;;;11.78;36.52
5755;BME280;2902;42.130;24.732;2023-02-03T11:05:32;100083.50;;;11.59;37.21
5755;BME280;2902;42.130;24.732;2023-02-03T11:07:59;100081.97;;;11.86;36.93
5755;BME280;2902;42.130;24.732;2023-02-03T11:10:28;100085.22;;;12.02;37.33
5755;BME280;2902;42.130;24.732;2023-02-03T11:13:15;100085.94;;;12.17;36.79
5755;BME280;2902;42.130;24.732;2023-02-03T11:15:50;100095.41;;;11.99;36.76
5755;BME280;2902;42.130;24.732;2023-02-03T11:21:12;100086.97;;;12.16;35.70
5755;BME280;2902;42.130;24.732;2023-02-03T11:23:46;100087.75;;;12.10;35.82
5755;BME280;2902;42.130;24.732;2023-02-03T11:26:18;100081.53;;;12.03;35.78
5755;BME280;2902;42.130;24.732;2023-02-03T11:28:46;100075.38;;;12.03;36.12
5755;BME280;2902;42.130;24.732;2023-02-03T11:31:22;100085.72;;;12.12;35.86
5755;BME280;2902;42.130;24.732;2023-02-03T11:34:01;100083.66;;;11.72;35.66
5755;BME280;2902;42.130;24.732;2023-02-03T11:36:31;100074.56;;;11.31;36.65
5755;BME280;2902;42.130;24.732;2023-02-03T11:39:16;100063.16;;;11.66;36.31
5755;BME280;2902;42.130;24.732;2023-02-03T11:41:44;100065.03;;;11.72;36.19
5755;BME280;2902;42.130;24.732;2023-02-03T11:44:16;100069.50;;;11.86;36.09
5755;BME280;2902;42.130;24.732;2023-02-03T11:46:45;100055.47;;;11.99;35.67
5755;BME280;2902;42.130;24.732;2023-02-03T11:52:22;100047.91;;;11.60;35.20
5755;BME280;2902;42.130;24.732;2023-02-03T11:55:00;100042.06;;;11.15;35.64
5755;BME280;2902;42.130;24.732;2023-02-03T11:57:38;100027.16;;;10.99;36.32
5755;BME280;2902;42.130;24.732;2023-02-03T12:00:19;100030.88;;;11.04;35.99
5755;BME280;2902;42.130;24.732;2023-02-03T12:03:21;100022.47;;;11.37;35.46
5755;BME280;2902;42.130;24.732;2023-02-03T12:06:07;100028.81;;;11.36;35.07
5755;BME280;2902;42.130;24.732;2023-02-03T12:08:50;100020.00;;;11.56;34.62
5755;BME280;2902;42.130;24.732;2023-02-03T12:11:30;100027.03;;;11.22;34.55
5755;BME280;2902;42.130;24.732;2023-02-03T12:14:19;100008.56;;;11.56;34.85
5755;BME280;2902;42.130;24.732;2023-02-03T12:17:03;100006.38;;;11.80;34.56
5755;BME280;2902;42.130;24.732;2023-02-03T12:19:47;100017.00;;;11.80;34.22
5755;BME280;2902;42.130;24.732;2023-02-03T12:22:25;100006.97;;;12.03;33.53
5755;BME280;2902;42.130;24.732;2023-02-03T12:24:58;99971.53;;;11.75;33.54
5755;BME280;2902;42.130;24.732;2023-02-03T12:27:39;100001.94;;;11.87;33.52
5755;BME280;2902;42.130;24.732;2023-02-03T12:30:12;99995.72;;;11.80;33.79
5755;BME280;2902;42.130;24.732;2023-02-03T12:32:44;99995.88;;;11.58;34.15
5755;BME280;2902;42.130;24.732;2023-02-03T12:35:19;99997.09;;;11.55;34.33
5755;BME280;2902;42.130;24.732;2023-02-03T12:37:49;99998.47;;;11.51;34.74
5755;BME280;2902;42.130;24.732;2023-02-03T12:40:22;99998.22;;;11.46;35.17
5755;BME280;2902;42.130;24.732;2023-02-03T12:42:55;99991.34;;;11.52;34.99
5755;BME280;2902;42.130;24.732;2023-02-03T12:45:25;99995.75;;;11.45;34.52
5755;BME280;2902;42.130;24.732;2023-02-03T12:47:57;99997.38;;;11.25;33.84
5755;BME280;2902;42.130;24.732;2023-02-03T12:50:31;99986.94;;;11.23;34.65
5755;BME280;2902;42.130;24.732;2023-02-03T12:53:01;99998.06;;;11.12;35.05
5755;BME280;2902;42.130;24.732;2023-02-03T12:55:35;99980.59;;;11.03;35.05
5755;BME280;2902;42.130;24.732;2023-02-03T12:58:05;99985.81;;;10.96;35.06
5755;BME280;2902;42.130;24.732;2023-02-03T13:00:38;99979.97;;;10.86;33.91
5755;BME280;2902;42.130;24.732;2023-02-03T13:03:13;99966.19;;;10.62;34.51
5755;BME280;2902;42.130;24.732;2023-02-03T13:05:48;99973.84;;;10.71;34.42
5755;BME280;2902;42.130;24.732;2023-02-03T13:08:29;99972.53;;;10.82;34.06
5755;BME280;2902;42.130;24.732;2023-02-03T13:11:08;99967.00;;;10.98;33.80
5755;BME280;2902;42.130;24.732;2023-02-03T13:13:39;99972.41;;;11.04;33.53
5755;BME280;2902;42.130;24.732;2023-02-03T13:16:10;99951.97;;;11.05;33.36
5755;BME280;2902;42.130;24.732;2023-02-03T13:18:41;99969.97;;;11.24;33.30
5755;BME280;2902;42.130;24.732;2023-02-03T13:21:11;99963.25;;;11.07;33.39
5755;BME280;2902;42.130;24.732;2023-02-03T13:23:41;99972.88;;;11.08;33.54
5755;BME280;2902;42.130;24.732;2023-02-03T13:26:21;99980.72;;;11.16;33.56
5755;BME280;2902;42.130;24.732;2023-02-03T13:29:14;99965.50;;;11.10;33.67
5755;BME280;2902;42.130;24.732;2023-02-03T13:31:51;99965.03;;;11.21;35.38
5755;BME280;2902;42.130;24.732;2023-02-03T13:34:43;99969.88;;;11.32;34.93
5755;BME280;2902;42.130;24.732;2023-02-03T13:40:27;99946.28;;;11.08;33.07
5755;BME280;2902;42.130;24.732;2023-02-03T13:42:58;99966.47;;;11.02;33.02
5755;BME280;2902;42.130;24.732;2023-02-03T13:45:28;99955.50;;;10.91;32.64